Time;durP1;ratioP1;P1;durP2;ratioP2;P2;SDS_P1;SDS_P2;PMS_P1;PMS_P2;Temp;Humidity;BMP_temperature;BMP_pressure;BME280_temperature;BME280_humidity;BME280_pressure;Samples;Min_cycle;Max_cycle;Signal;HPM_P1;HPM_P2
2022/09/17 00:01:13;;;;;;;7.27;2.27;;;13.20;1.00;;;;;;4983895;28;20285;-62
2022/09/17 00:03:40;;;;;;;4.17;1.60;;;13.30;1.00;;;;;;4969477;28;20198;-61
2022/09/17 00:06:10;;;;;;;6.03;2.20;;;13.40;1.00;;;;;;4982573;28;20196;-61
2022/09/17 00:08:39;;;;;;;6.30;1.77;;;13.40;1.00;;;;;;4969242;28;20285;-61
2022/09/17 00:11:13;;;;;;;7.97;2.30;;;13.40;1.00;;;;;;4968284;28;20688;-62
2022/09/17 00:13:41;;;;;;;4.47;1.97;;;13.60;99.90;;;;;;4967991;28;20639;-62
2022/09/17 00:16:08;;;;;;;7.50;2.40;;;13.70;1.00;;;;;;4968350;28;20194;-61
2022/09/17 00:18:39;;;;;;;6.40;1.93;;;13.30;99.90;;;;;;4967894;28;20205;-62
2022/09/17 00:21:14;;;;;;;5.73;1.97;;;13.20;1.00;;;;;;4967748;28;20206;-62
2022/09/17 00:23:41;;;;;;;5.93;2.23;;;13.40;17.90;;;;;;4966148;28;20602;-60
2022/09/17 00:26:08;;;;;;;6.87;2.27;;;13.50;1.00;;;;;;4959404;28;20210;-63
2022/09/17 00:28:35;;;;;;;6.03;2.40;;;13.60;1.00;;;;;;5000353;28;20619;-62
2022/09/17 00:31:08;;;;;;;7.73;2.80;;;13.60;1.00;;;;;;4968024;28;20214;-61
2022/09/17 00:33:36;;;;;;;3.07;1.53;;;13.40;1.00;;;;;;4982047;28;20202;-60
2022/09/17 00:36:04;;;;;;;10.33;2.50;;;13.40;1.00;;;;;;4968096;28;20199;-63
2022/09/17 00:38:31;;;;;;;8.43;1.80;;;13.10;1.00;;;;;;4950411;28;20240;-63
2022/09/17 00:40:59;;;;;;;7.17;2.27;;;12.90;99.90;;;;;;4982749;28;20190;-62
2022/09/17 00:43:38;;;;;;;4.53;1.83;;;13.10;1.00;;;;;;4980262;28;20202;-62
2022/09/17 00:46:34;;;;;;;5.67;1.80;;;13.10;83.00;;;;;;4979436;28;20213;-61
2022/09/17 00:49:06;;;;;;;4.50;1.77;;;13.40;1.00;;;;;;4967964;28;20198;-61
2022/09/17 00:51:36;;;;;;;5.53;2.10;;;13.50;1.00;;;;;;4967262;28;20199;-61
2022/09/17 00:54:05;;;;;;;6.83;2.20;;;13.50;1.00;;;;;;4965229;28;20198;-61
2022/09/17 00:56:35;;;;;;;7.97;2.07;;;13.40;1.00;;;;;;4982251;28;20194;-63
2022/09/17 00:59:02;;;;;;;6.90;2.10;;;13.30;1.00;;;;;;4981974;28;20560;-63
2022/09/17 01:01:31;;;;;;;8.63;2.97;;;13.50;99.90;;;;;;4980785;28;20201;-62
2022/09/17 01:03:58;;;;;;;9.00;3.43;;;13.40;1.00;;;;;;4996176;28;20210;-62
2022/09/17 01:06:42;;;;;;;10.70;3.60;;;13.20;1.00;;;;;;4966560;28;20204;-63
2022/09/17 01:09:37;;;;;;;6.37;2.10;;;13.00;22.10;;;;;;4943416;28;20206;-60
2022/09/17 01:13:00;;;;;;;6.13;2.13;;;13.20;1.00;;;;;;4965021;28;20230;-62
2022/09/17 01:15:30;;;;;;;9.27;2.70;;;13.30;1.00;;;;;;4913259;28;20208;-60
2022/09/17 01:18:54;;;;;;;7.60;2.17;;;13.20;1.00;;;;;;4967456;28;20680;-60
2022/09/17 01:21:49;;;;;;;8.17;2.33;;;13.30;1.00;;;;;;4897933;28;20564;-60
2022/09/17 01:24:39;;;;;;;7.17;2.40;;;13.40;1.00;;;;;;4949467;28;20226;-61
2022/09/17 01:27:34;;;;;;;6.83;2.17;;;13.30;1.00;;;;;;4966873;28;20198;-60
2022/09/17 01:30:37;;;;;;;6.77;2.10;;;13.00;1.00;;;;;;4946344;28;21339;-62
2022/09/17 01:33:19;;;;;;;9.23;2.67;;;13.20;1.00;;;;;;4966910;28;20190;-61
2022/09/17 01:35:57;;;;;;;10.57;2.27;;;13.00;1.00;;;;;;4966881;28;20228;-61
2022/09/17 01:38:45;;;;;;;9.93;2.70;;;13.20;1.00;;;;;;4966239;28;20606;-60
2022/09/17 01:41:25;;;;;;;10.00;2.43;;;13.10;1.00;;;;;;4977680;28;20297;-59
2022/09/17 01:44:11;;;;;;;8.33;2.83;;;12.80;1.00;;;;;;4978662;28;20202;-61
2022/09/17 01:46:45;;;;;;;6.70;2.60;;;12.90;1.00;;;;;;4963603;28;21594;-58
2022/09/17 01:49:15;;;;;;;10.53;2.77;;;13.00;1.00;;;;;;4966983;28;20246;-58
2022/09/17 01:51:47;;;;;;;10.13;2.40;;;12.70;99.90;;;;;;4961756;28;20226;-61
2022/09/17 01:54:21;;;;;;;8.07;3.70;;;12.80;99.90;;;;;;4963757;28;20190;-64
2022/09/17 01:57:32;;;;;;;7.10;2.70;;;12.80;1.00;;;;;;4980747;28;20692;-62
2022/09/17 02:00:10;;;;;;;6.10;2.57;;;12.90;1.00;;;;;;4945329;28;20198;-61
2022/09/17 02:02:49;;;;;;;10.33;3.27;;;13.20;99.90;;;;;;4965514;28;20651;-60
2022/09/17 02:05:26;;;;;;;10.47;3.07;;;13.10;99.90;;;;;;4981421;28;20194;-62
2022/09/17 02:08:13;;;;;;;9.77;2.77;;;12.70;1.00;;;;;;4965432;28;20201;-63
2022/09/17 02:10:45;;;;;;;7.77;2.57;;;13.00;1.00;;;;;;4981124;28;20218;-61
2022/09/17 02:13:19;;;;;;;10.20;3.20;;;13.30;99.90;;;;;;4981842;28;20708;-61
2022/09/17 02:15:53;;;;;;;9.27;2.57;;;12.90;99.90;;;;;;4959435;28;20205;-63
2022/09/17 02:18:25;;;;;;;7.20;2.37;;;12.70;1.00;;;;;;4966426;28;20190;-63
2022/09/17 02:21:14;;;;;;;9.37;2.67;;;12.80;1.00;;;;;;4977827;28;20195;-63
2022/09/17 02:23:56;;;;;;;11.17;3.20;;;13.00;1.00;;;;;;4964787;28;20217;-63
2022/09/17 02:26:26;;;;;;;8.37;2.70;;;12.40;1.00;;;;;;4965437;28;20301;-62
2022/09/17 02:28:58;;;;;;;7.33;2.80;;;12.30;26.60;;;;;;4966894;28;20206;-62
2022/09/17 02:31:25;;;;;;;8.47;2.67;;;12.40;99.90;;;;;;4963986;28;20293;-63
2022/09/17 02:33:59;;;;;;;12.53;3.43;;;12.50;1.00;;;;;;4965656;28;20214;-63
2022/09/17 02:36:27;;;;;;;8.13;3.10;;;12.30;1.00;;;;;;4964965;28;20218;-63
2022/09/17 02:39:00;;;;;;;14.37;3.37;;;12.30;1.00;;;;;;4970221;28;20728;-62
2022/09/17 02:42:03;;;;;;;8.57;3.00;;;12.10;2.60;;;;;;4986097;28;20206;-63
2022/09/17 02:45:09;;;;;;;14.53;2.87;;;12.20;1.00;;;;;;4970282;28;20194;-63
2022/09/17 02:47:58;;;;;;;11.53;3.17;;;12.00;1.00;;;;;;4932698;28;20206;-63
2022/09/17 02:50:43;;;;;;;18.30;3.33;;;12.10;66.10;;;;;;4969161;28;20313;-64
2022/09/17 02:53:16;;;;;;;10.90;2.53;;;12.00;1.00;;;;;;4967208;28;20225;-64
2022/09/17 02:56:18;;;;;;;12.60;3.57;;;11.70;1.00;;;;;;4969713;28;20466;-63
2022/09/17 02:59:08;;;;;;;11.17;2.80;;;11.90;99.90;;;;;;4969197;28;20320;-64
2022/09/17 03:01:41;;;;;;;10.23;2.77;;;11.80;99.90;;;;;;4965625;28;20386;-63
2022/09/17 03:04:12;;;;;;;11.10;2.60;;;11.80;58.20;;;;;;4984745;28;20695;-63
2022/09/17 03:06:44;;;;;;;6.27;1.90;;;11.80;1.00;;;;;;4965261;28;20206;-63
2022/09/17 03:09:15;;;;;;;5.70;2.27;;;11.70;1.00;;;;;;4984605;28;20222;-62
2022/09/17 03:11:42;;;;;;;10.13;2.77;;;12.00;99.90;;;;;;4946787;28;20248;-64
2022/09/17 03:14:09;;;;;;;11.83;4.13;;;12.20;1.00;;;;;;4969327;28;20194;-63
2022/09/17 03:16:36;;;;;;;16.53;7.73;;;12.10;99.90;;;;;;4981347;28;20194;-62
2022/09/17 03:19:03;;;;;;;18.37;6.67;;;12.40;1.00;;;;;;4964277;28;20208;-64
2022/09/17 03:21:30;;;;;;;20.30;8.47;;;12.60;99.90;;;;;;4963671;28;20249;-63
2022/09/17 03:23:59;;;;;;;24.00;12.73;;;12.60;99.90;;;;;;4967513;28;20713;-62
2022/09/17 03:26:26;;;;;;;18.80;9.40;;;12.70;99.90;;;;;;4948067;28;20214;-62
2022/09/17 03:28:54;;;;;;;18.43;9.90;;;12.60;1.00;;;;;;4979862;28;20236;-61
2022/09/17 03:31:21;;;;;;;18.00;8.43;;;12.40;99.90;;;;;;4964974;28;20218;-62
2022/09/17 03:33:49;;;;;;;16.23;9.63;;;12.40;99.90;;;;;;4968806;28;20198;-62
2022/09/17 03:36:19;;;;;;;12.03;6.37;;;12.20;99.90;;;;;;4983265;28;20661;-62
2022/09/17 03:38:46;;;;;;;12.83;6.10;;;12.30;97.00;;;;;;4969697;28;20194;-62
2022/09/17 03:41:13;;;;;;;13.10;4.50;;;12.00;99.90;;;;;;4964568;28;20552;-63
2022/09/17 03:43:39;;;;;;;9.97;2.60;;;11.80;99.90;;;;;;4968614;28;20691;-62
2022/09/17 03:46:06;;;;;;;11.87;3.07;;;11.30;1.00;;;;;;4999322;28;20198;-64
2022/09/17 03:48:35;;;;;;;16.17;7.13;;;11.10;32.90;;;;;;4967540;28;20230;-63
2022/09/17 03:51:03;;;;;;;15.10;7.50;;;11.30;1.00;;;;;;4948242;28;20210;-64
2022/09/17 03:53:31;;;;;;;12.93;3.70;;;11.30;99.90;;;;;;4981955;28;20823;-61
2022/09/17 03:55:59;;;;;;;14.30;6.60;;;11.30;1.00;;;;;;4967401;28;20207;-63
2022/09/17 03:58:27;;;;;;;9.30;4.07;;;11.30;99.90;;;;;;4962476;28;20213;-63
2022/09/17 04:00:56;;;;;;;14.40;4.53;;;10.90;1.00;;;;;;4965715;28;20215;-64
2022/09/17 04:03:25;;;;;;;17.20;5.67;;;10.80;99.90;;;;;;4949214;28;20206;-63
2022/09/17 04:05:53;;;;;;;17.83;4.83;;;11.10;99.90;;;;;;4965055;28;20209;-64
2022/09/17 04:08:20;;;;;;;13.23;3.80;;;11.10;1.00;;;;;;4978543;28;20198;-63
2022/09/17 04:10:47;;;;;;;13.47;5.70;;;11.00;1.00;;;;;;4979234;28;20237;-63
2022/09/17 04:13:15;;;;;;;14.90;2.90;;;10.90;99.90;;;;;;4966989;28;20244;-63
2022/09/17 04:15:44;;;;;;;12.47;3.80;;;10.80;59.80;;;;;;4966228;28;20189;-64
2022/09/17 04:18:11;;;;;;;14.83;5.40;;;11.00;99.90;;;;;;4982340;28;20229;-65
2022/09/17 04:20:38;;;;;;;14.37;5.43;;;10.90;1.00;;;;;;4967000;28;20563;-63
2022/09/17 04:23:06;;;;;;;13.53;5.07;;;11.30;1.00;;;;;;4965652;28;20217;-63
2022/09/17 04:25:33;;;;;;;14.20;6.23;;;11.60;1.00;;;;;;4983840;28;20202;-63
2022/09/17 04:28:00;;;;;;;22.17;10.23;;;11.80;1.00;;;;;;4966998;28;20202;-63
2022/09/17 04:30:27;;;;;;;16.73;9.87;;;11.90;99.90;;;;;;4967413;28;20673;-63
2022/09/17 04:32:54;;;;;;;15.37;8.43;;;12.00;99.90;;;;;;4960888;28;20216;-62
2022/09/17 04:35:21;;;;;;;17.27;10.20;;;12.00;1.00;;;;;;4967302;28;20199;-61
2022/09/17 04:37:53;;;;;;;14.47;7.50;;;12.20;1.00;;;;;;4949275;28;20222;-64
2022/09/17 04:40:21;;;;;;;8.93;2.87;;;12.10;1.00;;;;;;4960735;28;20233;-61
2022/09/17 04:42:52;;;;;;;12.80;5.23;;;11.80;1.00;;;;;;4965935;28;20221;-63
2022/09/17 04:45:19;;;;;;;15.57;3.63;;;11.80;1.00;;;;;;4982854;28;20212;-64
2022/09/17 04:47:46;;;;;;;12.40;4.73;;;11.50;1.00;;;;;;4968321;28;20191;-64
2022/09/17 04:50:13;;;;;;;13.63;5.83;;;11.30;99.90;;;;;;4967629;28;20686;-64
2022/09/17 04:52:44;;;;;;;14.13;6.30;;;11.40;99.90;;;;;;4982634;28;20206;-63
2022/09/17 04:55:12;;;;;;;17.13;5.07;;;11.20;99.90;;;;;;4967426;28;20705;-63
2022/09/17 04:57:44;;;;;;;14.83;5.47;;;11.00;99.90;;;;;;4965454;28;20206;-62
2022/09/17 05:00:11;;;;;;;18.00;4.83;;;10.80;1.00;;;;;;4966430;28;20274;-63
2022/09/17 05:02:38;;;;;;;16.33;7.30;;;10.70;1.00;;;;;;4982432;28;20589;-62
2022/09/17 05:05:06;;;;;;;16.67;6.33;;;10.70;99.90;;;;;;4981302;28;20197;-64
2022/09/17 05:07:33;;;;;;;14.83;3.90;;;11.00;1.00;;;;;;4949666;28;20286;-64
2022/09/17 05:10:00;;;;;;;12.90;3.23;;;11.10;1.00;;;;;;4965835;28;20249;-62
2022/09/17 05:12:26;;;;;;;16.10;3.97;;;10.90;1.00;;;;;;4953776;28;20237;-62
2022/09/17 05:15:00;;;;;;;14.40;3.20;;;10.90;1.00;;;;;;5001080;28;20209;-62
2022/09/17 05:17:27;;;;;;;16.90;3.63;;;10.90;99.90;;;;;;4986049;28;20190;-62
2022/09/17 05:19:54;;;;;;;14.60;3.63;;;11.00;1.00;;;;;;5000377;28;20217;-63
2022/09/17 05:22:20;;;;;;;13.07;3.97;;;11.00;99.90;;;;;;4983413;28;20221;-63
2022/09/17 05:24:47;;;;;;;13.67;6.27;;;10.90;99.90;;;;;;5000622;28;20215;-63
2022/09/17 05:27:14;;;;;;;10.97;4.97;;;11.20;1.00;;;;;;5001208;28;20367;-62
2022/09/17 05:29:41;;;;;;;13.37;5.67;;;11.30;99.90;;;;;;4985988;28;20205;-61
2022/09/17 05:32:08;;;;;;;11.10;5.97;;;11.30;99.90;;;;;;4976604;28;20340;-64
2022/09/17 05:34:35;;;;;;;12.67;5.00;;;11.90;99.90;;;;;;4974951;28;21099;-61
2022/09/17 05:37:02;;;;;;;14.17;5.33;;;12.50;1.00;;;;;;5001171;28;20197;-62
2022/09/17 05:39:29;;;;;;;13.13;5.37;;;12.50;1.00;;;;;;4997180;28;20197;-62
2022/09/17 05:41:56;;;;;;;11.43;5.70;;;12.50;99.90;;;;;;4980235;28;20193;-62
2022/09/17 05:44:24;;;;;;;15.53;6.93;;;12.80;99.90;;;;;;4984384;28;20205;-63
2022/09/17 05:46:52;;;;;;;8.53;3.60;;;12.60;99.90;;;;;;4983816;28;20269;-61
2022/09/17 05:49:19;;;;;;;9.63;4.80;;;12.60;19.20;;;;;;4987057;28;20823;-64
2022/09/17 05:51:47;;;;;;;11.87;3.93;;;12.40;99.90;;;;;;4998483;28;20228;-64
2022/09/17 05:54:14;;;;;;;8.43;3.27;;;12.50;99.90;;;;;;4984980;28;20664;-64
2022/09/17 05:56:40;;;;;;;10.77;3.53;;;13.20;1.00;;;;;;5000189;28;20197;-61
2022/09/17 05:59:07;;;;;;;14.30;5.03;;;13.00;1.00;;;;;;4985668;28;20216;-61
2022/09/17 06:01:34;;;;;;;14.50;3.20;;;13.00;1.00;;;;;;4984332;28;20232;-62
2022/09/17 06:04:03;;;;;;;10.63;2.83;;;13.80;1.00;;;;;;4968510;28;20584;-63
2022/09/17 06:06:30;;;;;;;10.40;4.53;;;14.80;99.90;;;;;;4985573;28;20217;-61
2022/09/17 06:09:00;;;;;;;10.20;2.85;;;16.10;1.00;;;;;;5016493;28;20210;-62
2022/09/17 06:11:27;;;;;;;10.20;2.13;;;17.50;1.00;;;;;;4984482;28;20289;-62
2022/09/17 06:13:55;;;;;;;11.90;3.47;;;18.90;99.90;;;;;;5003568;28;20233;-62
2022/09/17 06:16:22;;;;;;;6.55;2.10;;;19.70;99.90;;;;;;4990206;28;20189;-61
2022/09/17 06:18:51;;;;;;;8.25;3.03;;;20.80;95.90;;;;;;4988737;28;20198;-63
2022/09/17 06:21:20;;;;;;;6.78;3.20;;;21.00;93.90;;;;;;4987152;28;20428;-61
2022/09/17 06:23:51;;;;;;;9.93;3.97;;;22.00;6.90;;;;;;4985994;28;20197;-61
2022/09/17 06:26:18;;;;;;;5.88;3.65;;;21.50;42.50;;;;;;4990009;28;20288;-61
2022/09/17 06:28:45;;;;;;;9.75;2.80;;;20.20;86.50;;;;;;4989900;28;20412;-62
2022/09/17 06:31:12;;;;;;;7.22;2.72;;;18.70;99.90;;;;;;4969985;28;20225;-62
2022/09/17 06:33:40;;;;;;;8.45;3.03;;;17.10;99.90;;;;;;4987144;28;20699;-64
2022/09/17 06:36:10;;;;;;;9.98;2.33;;;16.10;1.00;;;;;;4970357;28;20284;-64
2022/09/17 06:38:40;;;;;;;9.50;2.33;;;15.40;1.00;;;;;;5001368;28;20615;-61
2022/09/17 06:41:07;;;;;;;7.93;2.92;;;15.40;1.00;;;;;;4999289;28;20216;-64
2022/09/17 06:43:34;;;;;;;10.90;2.80;;;15.50;1.00;;;;;;4987438;28;20210;-63
2022/09/17 06:46:04;;;;;;;6.60;2.63;;;16.80;1.00;;;;;;4998588;28;20205;-62
2022/09/17 06:48:34;;;;;;;9.32;2.33;;;18.60;99.90;;;;;;4980686;28;20202;-63
2022/09/17 06:51:03;;;;;;;7.85;2.63;;;18.60;99.90;;;;;;4998742;28;20917;-62
2022/09/17 06:53:30;;;;;;;7.95;2.78;;;17.80;99.90;;;;;;4970685;28;20204;-61
2022/09/17 06:55:59;;;;;;;6.72;2.28;;;17.00;99.90;;;;;;4994388;28;20222;-62
2022/09/17 06:58:33;;;;;;;6.97;3.03;;;16.80;99.90;;;;;;4977696;28;20201;-64
2022/09/17 07:01:01;;;;;;;5.63;2.22;;;16.70;1.00;;;;;;4958679;28;20198;-62
2022/09/17 07:03:29;;;;;;;11.25;2.88;;;16.90;99.90;;;;;;4987341;28;20212;-63
2022/09/17 07:05:57;;;;;;;7.07;2.47;;;18.00;99.90;;;;;;4985903;28;20241;-63
2022/09/17 07:08:27;;;;;;;9.23;2.40;;;17.70;99.90;;;;;;5003151;28;20209;-63
2022/09/17 07:10:55;;;;;;;9.30;2.40;;;17.40;99.90;;;;;;4967495;28;20197;-63
2022/09/17 07:13:23;;;;;;;10.38;2.75;;;18.00;99.90;;;;;;4996080;28;20233;-62
2022/09/17 07:15:54;;;;;;;13.73;8.73;;;19.60;56.60;;;;;;4985323;28;20695;-62
2022/09/17 07:18:22;;;;;;;14.23;7.38;;;22.00;1.00;;;;;;4967518;28;20312;-62
2022/09/17 07:21:09;;;;;;;7.78;3.85;;;23.50;1.00;;;;;;5001647;28;20220;-61
2022/09/17 07:23:36;;;;;;;10.48;4.20;;;25.20;1.00;;;;;;4987427;28;20194;-62
2022/09/17 07:26:07;;;;;;;7.78;2.70;;;25.90;1.00;;;;;;4987349;28;20280;-62
2022/09/17 07:28:37;;;;;;;6.90;2.05;;;26.10;1.00;;;;;;4988360;28;20845;-62
2022/09/17 07:31:04;;;;;;;6.88;2.22;;;26.80;1.00;;;;;;5002023;28;20209;-63
2022/09/17 07:33:33;;;;;;;8.73;2.13;;;26.40;1.00;;;;;;4986333;28;20288;-62
2022/09/17 07:36:01;;;;;;;7.00;1.88;;;23.20;1.00;;;;;;4987815;28;20212;-62
2022/09/17 07:38:29;;;;;;;6.78;2.10;;;22.60;1.00;;;;;;4988876;28;20213;-62
2022/09/17 07:41:14;;;;;;;9.05;2.15;;;23.70;1.00;;;;;;4989027;28;20197;-63
2022/09/17 07:43:42;;;;;;;9.90;2.05;;;23.70;1.00;;;;;;4989323;28;20196;-62
2022/09/17 07:46:15;;;;;;;10.60;2.15;;;20.80;1.00;;;;;;4972193;28;20206;-62
2022/09/17 07:48:42;;;;;;;5.88;1.63;;;18.80;16.60;;;;;;4988884;28;20194;-61
2022/09/17 07:51:18;;;;;;;12.00;4.53;;;18.40;85.20;;;;;;5003875;28;20474;-64
2022/09/17 07:53:46;;;;;;;16.25;9.13;;;18.50;71.90;;;;;;4986827;28;21016;-63
2022/09/17 07:56:13;;;;;;;11.98;7.38;;;18.30;98.10;;;;;;4986723;28;20664;-63
2022/09/17 07:58:41;;;;;;;9.60;3.03;;;17.90;99.90;;;;;;4985744;28;20200;-62
2022/09/17 08:01:10;;;;;;;7.45;2.88;;;20.20;1.00;;;;;;4986426;28;20789;-62
2022/09/17 08:03:38;;;;;;;12.20;4.85;;;23.50;1.00;;;;;;4999412;28;20302;-62
2022/09/17 08:06:15;;;;;;;7.95;3.33;;;27.20;1.00;;;;;;4988664;28;20609;-64
2022/09/17 08:08:42;;;;;;;8.75;4.43;;;30.10;1.00;;;;;;4987907;28;20185;-63
2022/09/17 08:11:21;;;;;;;8.68;3.55;;;30.30;1.00;;;;;;4984938;28;20206;-64
2022/09/17 08:14:14;;;;;;;5.20;2.97;;;30.20;1.00;;;;;;5000081;28;20197;-65
2022/09/17 08:16:44;;;;;;;6.15;2.60;;;30.60;1.00;;;;;;4986879;28;20276;-62
2022/09/17 08:19:11;;;;;;;4.50;2.47;;;31.00;1.00;;;;;;4985125;28;20291;-63
2022/09/17 08:21:38;;;;;;;7.00;2.92;;;30.00;1.00;;;;;;5016150;28;20946;-65
2022/09/17 08:24:05;;;;;;;4.93;2.53;;;31.00;1.00;;;;;;4981567;28;20669;-64
2022/09/17 08:26:32;;;;;;;7.45;3.15;;;32.30;1.00;;;;;;4985659;28;20280;-63
2022/09/17 08:28:59;;;;;;;6.53;2.92;;;28.30;1.00;;;;;;5000425;28;20552;-66
2022/09/17 08:31:28;;;;;;;5.85;2.70;;;30.00;1.00;;;;;;4999095;28;20220;-64
2022/09/17 08:33:56;;;;;;;7.90;3.45;;;31.40;1.00;;;;;;4964665;28;20205;-63
2022/09/17 08:36:25;;;;;;;9.27;3.92;;;31.10;1.00;;;;;;4986502;28;21014;-61
2022/09/17 08:38:54;;;;;;;9.23;3.30;;;29.50;1.00;;;;;;4985088;28;20205;-63
2022/09/17 08:41:35;;;;;;;6.85;2.95;;;29.60;1.00;;;;;;4969225;28;20194;-63
2022/09/17 08:44:23;;;;;;;6.97;2.33;;;29.70;1.00;;;;;;4967883;28;20211;-67
2022/09/17 08:46:53;;;;;;;6.07;2.25;;;28.10;1.00;;;;;;5001462;28;20204;-66
2022/09/17 08:49:42;;;;;;;6.43;2.33;;;27.20;1.00;;;;;;4987467;28;20716;-62
2022/09/17 08:52:25;;;;;;;6.82;2.42;;;28.00;1.00;;;;;;4969212;28;20333;-64
2022/09/17 08:55:10;;;;;;;7.97;2.17;;;29.40;1.00;;;;;;4970338;28;20292;-62
2022/09/17 08:57:43;;;;;;;6.10;2.10;;;27.30;1.00;;;;;;4986217;28;20198;-64
2022/09/17 09:00:15;;;;;;;6.90;2.10;;;24.60;1.00;;;;;;4984208;28;20237;-64
2022/09/17 09:02:54;;;;;;;6.20;2.10;;;29.40;1.00;;;;;;4985622;28;20197;-64
2022/09/17 09:05:46;;;;;;;6.05;2.03;;;24.60;1.00;;;;;;4985742;28;20194;-66
2022/09/17 09:09:05;;;;;;;8.27;2.10;;;26.20;1.00;;;;;;4999244;28;20230;-64
2022/09/17 09:11:34;;;;;;;4.72;1.80;;;28.00;1.00;;;;;;4966277;28;20201;-63
2022/09/17 09:14:15;;;;;;;3.50;1.60;;;25.40;1.00;;;;;;4951405;28;20271;-63
2022/09/17 09:16:44;;;;;;;4.60;1.90;;;25.70;1.00;;;;;;4962643;28;20913;-63
2022/09/17 09:19:32;;;;;;;8.40;3.35;;;24.40;1.00;;;;;;4967971;28;20665;-64
2022/09/17 09:22:18;;;;;;;7.85;3.15;;;20.70;1.00;;;;;;4981289;28;20313;-64
2022/09/17 09:25:04;;;;;;;5.15;2.53;;;23.60;1.00;;;;;;4965324;28;20285;-64
2022/09/17 09:27:59;;;;;;;4.93;2.25;;;24.10;1.00;;;;;;4964142;28;20538;-64
2022/09/17 09:30:39;;;;;;;10.55;2.92;;;27.00;1.00;;;;;;4961451;28;20193;-63
2022/09/17 09:33:14;;;;;;;8.25;2.08;;;25.50;1.00;;;;;;4966509;28;20236;-63
2022/09/17 09:35:43;;;;;;;5.40;1.95;;;29.60;1.00;;;;;;4984199;28;20204;-63
2022/09/17 09:38:28;;;;;;;7.25;1.60;;;31.20;1.00;;;;;;4951790;28;20372;-63
2022/09/17 09:41:05;;;;;;;7.05;2.38;;;31.60;1.00;;;;;;4967099;28;20193;-63
2022/09/17 09:44:11;;;;;;;5.28;1.77;;;28.10;1.00;;;;;;4983284;28;20197;-64
2022/09/17 09:46:59;;;;;;;7.72;2.28;;;25.90;1.00;;;;;;4926392;29;20207;-64
2022/09/17 09:49:47;;;;;;;8.13;2.72;;;22.60;1.00;;;;;;4924527;29;20208;-63
2022/09/17 09:52:29;;;;;;;6.60;2.65;;;28.10;1.00;;;;;;4948428;28;20850;-63
2022/09/17 09:55:11;;;;;;;3.42;2.00;;;29.60;1.00;;;;;;4966168;28;20288;-64
2022/09/17 09:57:51;;;;;;;4.25;2.17;;;28.10;1.00;;;;;;4982174;28;20320;-63
2022/09/17 10:00:36;;;;;;;5.57;2.25;;;27.60;1.00;;;;;;4966278;28;20203;-63
2022/09/17 10:03:21;;;;;;;5.75;1.98;;;24.80;1.00;;;;;;4959517;28;20206;-62
2022/09/17 10:06:08;;;;;;;5.10;1.67;;;22.90;1.00;;;;;;4967364;28;20198;-65
2022/09/17 10:08:41;;;;;;;4.18;1.95;;;26.10;1.00;;;;;;4968411;28;20194;-64
2022/09/17 10:11:07;;;;;;;6.65;2.30;;;23.90;1.00;;;;;;4965561;28;20287;-63
2022/09/17 10:13:36;;;;;;;6.07;1.85;;;22.70;1.00;;;;;;4995320;28;20601;-63
2022/09/17 10:16:28;;;;;;;8.63;2.15;;;20.60;1.00;;;;;;4948423;28;20567;-65
2022/09/17 10:18:58;;;;;;;6.75;1.65;;;21.20;1.00;;;;;;4958428;28;20194;-63
2022/09/17 10:21:38;;;;;;;4.32;1.85;;;22.60;1.00;;;;;;4966043;28;20201;-63
2022/09/17 10:24:20;;;;;;;4.05;1.65;;;25.50;1.00;;;;;;4963603;28;20278;-65
2022/09/17 10:26:48;;;;;;;3.80;1.60;;;29.60;1.00;;;;;;4965564;28;20204;-64
2022/09/17 10:29:18;;;;;;;4.95;1.48;;;26.20;1.00;;;;;;4947643;28;20693;-66
2022/09/17 10:31:53;;;;;;;4.53;1.52;;;23.10;1.00;;;;;;4962168;28;20228;-65
2022/09/17 10:34:26;;;;;;;6.18;1.60;;;20.20;1.00;;;;;;4962610;28;20200;-65
2022/09/17 10:36:57;;;;;;;4.47;1.73;;;18.60;37.90;;;;;;4967335;28;20555;-65
2022/09/17 10:39:24;;;;;;;3.47;1.63;;;18.20;99.90;;;;;;4978353;28;20203;-64
2022/09/17 10:42:10;;;;;;;6.32;2.10;;;18.40;99.90;;;;;;4978324;28;20206;-63
2022/09/17 10:44:37;;;;;;;4.35;1.73;;;23.20;1.00;;;;;;4964818;28;20560;-61
2022/09/17 10:47:23;;;;;;;4.63;1.42;;;27.10;1.00;;;;;;4977152;28;20237;-65
2022/09/17 10:49:56;;;;;;;3.55;1.70;;;29.20;1.00;;;;;;4967175;28;20277;-64
2022/09/17 10:52:34;;;;;;;2.53;1.35;;;29.80;1.00;;;;;;4964239;28;20674;-65
2022/09/17 10:55:52;;;;;;;7.75;1.50;;;30.10;1.00;;;;;;4964475;28;20226;-64
2022/09/17 10:58:38;;;;;;;3.58;1.27;;;30.20;1.00;;;;;;4941084;28;20289;-62
2022/09/17 11:01:21;;;;;;;6.63;1.63;;;31.30;1.00;;;;;;4965030;28;20309;-60
2022/09/17 11:03:57;;;;;;;3.97;1.08;;;30.60;1.00;;;;;;4960537;28;21211;-60
2022/09/17 11:06:33;;;;;;;5.88;1.42;;;28.80;1.00;;;;;;4969282;28;20320;-64
2022/09/17 11:09:21;;;;;;;3.78;1.30;;;29.60;1.00;;;;;;4969153;28;20199;-63
2022/09/17 11:12:18;;;;;;;6.23;1.20;;;26.90;1.00;;;;;;4965259;28;20226;-64
2022/09/17 11:15:09;;;;;;;2.67;1.05;;;23.70;1.00;;;;;;4969339;28;20271;-64
2022/09/17 11:17:52;;;;;;;2.50;1.27;;;21.70;1.00;;;;;;4950903;28;20202;-65
2022/09/17 11:20:39;;;;;;;3.30;1.20;;;23.80;1.00;;;;;;4969728;28;20249;-63
2022/09/17 11:23:23;;;;;;;3.65;1.00;;;24.60;1.00;;;;;;4966672;28;20201;-64
2022/09/17 11:25:54;;;;;;;5.00;1.25;;;25.00;1.00;;;;;;4966821;28;20384;-64
2022/09/17 11:28:32;;;;;;;3.00;1.20;;;25.20;1.00;;;;;;4951994;28;20551;-62
2022/09/17 11:31:10;;;;;;;2.97;1.60;;;25.30;1.00;;;;;;4968931;28;20293;-63
2022/09/17 11:34:06;;;;;;;2.90;1.02;;;25.90;1.00;;;;;;4952519;28;20238;-64
2022/09/17 11:37:02;;;;;;;5.03;1.45;;;26.60;1.00;;;;;;4970286;28;20229;-66
2022/09/17 11:39:56;;;;;;;3.35;1.20;;;26.90;1.00;;;;;;4968271;28;20198;-65
2022/09/17 11:42:48;;;;;;;3.35;1.08;;;26.50;1.00;;;;;;4965415;28;20201;-64
2022/09/17 11:45:38;;;;;;;5.15;1.08;;;25.50;1.00;;;;;;4953691;28;20213;-64
2022/09/17 11:48:16;;;;;;;4.60;1.80;;;25.00;1.00;;;;;;4952603;28;20289;-64
2022/09/17 11:50:57;;;;;;;2.55;1.13;;;25.20;1.00;;;;;;4947799;28;20214;-64
2022/09/17 11:53:47;;;;;;;5.18;1.30;;;25.40;1.00;;;;;;4943793;28;20226;-65
2022/09/17 11:56:24;;;;;;;5.90;1.40;;;24.80;1.00;;;;;;4935388;28;20186;-65
2022/09/17 11:59:10;;;;;;;2.75;1.05;;;24.60;1.00;;;;;;4968664;28;20193;-63
2022/09/17 12:01:56;;;;;;;3.83;0.90;;;23.80;1.00;;;;;;4962014;28;20288;-62
2022/09/17 12:04:29;;;;;;;3.60;1.08;;;22.10;1.00;;;;;;4968847;28;20220;-64
2022/09/17 12:07:12;;;;;;;2.90;1.10;;;20.80;1.00;;;;;;4967644;28;20526;-64
2022/09/17 12:09:43;;;;;;;3.35;1.00;;;20.50;1.00;;;;;;4967256;28;20285;-65
2022/09/17 12:12:24;;;;;;;1.67;0.80;;;21.30;1.00;;;;;;4946008;28;20294;-64
2022/09/17 12:15:19;;;;;;;3.90;0.95;;;21.30;1.00;;;;;;4950305;28;20203;-66
2022/09/17 12:18:11;;;;;;;2.17;1.00;;;21.40;1.00;;;;;;4977780;28;20751;-65
2022/09/17 12:21:00;;;;;;;5.40;1.20;;;22.30;1.00;;;;;;4979155;28;20206;-64
2022/09/17 12:23:37;;;;;;;1.67;0.98;;;22.00;1.00;;;;;;4981244;28;20208;-63
2022/09/17 12:26:33;;;;;;;2.83;0.90;;;21.70;1.00;;;;;;4962676;28;20649;-66
2022/09/17 12:29:28;;;;;;;1.45;0.75;;;21.90;1.00;;;;;;4979756;28;20204;-61
2022/09/17 12:32:13;;;;;;;3.20;1.20;;;21.90;1.00;;;;;;4978983;28;20518;-63
2022/09/17 12:34:49;;;;;;;2.15;0.98;;;22.40;1.00;;;;;;4945749;28;20669;-63
2022/09/17 12:37:38;;;;;;;2.03;1.25;;;21.20;1.00;;;;;;4976783;28;20215;-65
2022/09/17 12:40:07;;;;;;;2.63;1.00;;;20.00;1.00;;;;;;4979384;28;20210;-65
2022/09/17 12:43:04;;;;;;;1.98;1.30;;;19.30;1.00;;;;;;4978675;28;20236;-62
2022/09/17 12:45:56;;;;;;;5.85;1.00;;;18.90;1.00;;;;;;4956505;28;20643;-64
2022/09/17 12:48:57;;;;;;;3.97;1.10;;;18.80;1.00;;;;;;4979111;28;20281;-64
2022/09/17 12:51:30;;;;;;;1.90;0.90;;;18.80;1.00;;;;;;4977872;28;20198;-63
2022/09/17 12:54:32;;;;;;;5.55;1.20;;;18.60;1.00;;;;;;4970322;28;20221;-63
2022/09/17 12:57:38;;;;;;;3.95;1.05;;;19.10;1.00;;;;;;4955367;28;20565;-63
2022/09/17 13:00:14;;;;;;;2.40;1.05;;;19.50;1.00;;;;;;4963961;28;20206;-63
2022/09/17 13:02:51;;;;;;;3.13;0.80;;;19.80;1.00;;;;;;4976267;28;20212;-62
2022/09/17 13:05:42;;;;;;;2.38;1.02;;;20.00;1.00;;;;;;4981053;28;20304;-61
2022/09/17 13:08:33;;;;;;;4.43;0.82;;;19.70;1.00;;;;;;4992088;28;20202;-64
2022/09/17 13:11:32;;;;;;;3.72;1.02;;;19.30;1.00;;;;;;4975922;28;20226;-63
2022/09/17 13:14:27;;;;;;;3.42;1.48;;;18.50;79.90;;;;;;4958487;28;20242;-63
2022/09/17 13:17:09;;;;;;;2.97;1.00;;;17.00;99.90;;;;;;4980596;28;20600;-63
2022/09/17 13:19:58;;;;;;;2.05;0.95;;;16.40;99.90;;;;;;4972494;28;20278;-63
2022/09/17 13:22:32;;;;;;;1.20;0.80;;;16.10;1.00;;;;;;4962002;28;20282;-64
2022/09/17 13:25:06;;;;;;;1.23;0.80;;;16.20;99.90;;;;;;4979346;28;20261;-63
2022/09/17 13:27:36;;;;;;;3.53;0.98;;;16.20;1.00;;;;;;4993418;28;20205;-63
2022/09/17 13:30:05;;;;;;;1.58;0.70;;;16.70;99.90;;;;;;4976065;28;20596;-64
2022/09/17 13:32:32;;;;;;;2.33;1.15;;;16.80;99.90;;;;;;4978980;28;20560;-63
2022/09/17 13:35:05;;;;;;;1.30;0.73;;;16.70;99.90;;;;;;4961975;28;20230;-63